createdAt,value
2023-02-13T00:04:43.406Z,24.25
2023-02-13T00:09:45.202Z,20.75
2023-02-13T00:14:46.979Z,29.75
2023-02-13T00:19:48.795Z,26.50
2023-02-13T00:24:51.207Z,20.00
2023-02-13T00:29:52.980Z,15.00
2023-02-13T00:34:54.948Z,24.75
2023-02-13T00:39:58.181Z,23.50
2023-02-13T00:44:59.940Z,19.75
2023-02-13T00:50:01.749Z,14.50
2023-02-13T00:55:04.529Z,15.00
2023-02-13T01:00:07.041Z,20.00
2023-02-13T01:05:08.935Z,26.00
2023-02-13T01:10:10.945Z,19.50
2023-02-13T01:15:12.710Z,21.00
2023-02-13T01:20:15.090Z,22.50
2023-02-13T01:25:17.510Z,19.25
2023-02-13T01:30:19.767Z,17.75
2023-02-13T01:35:22.484Z,14.75
2023-02-13T01:40:24.335Z,16.00
2023-02-13T01:45:29.795Z,16.00
2023-02-13T01:50:49.389Z,11.50
2023-02-13T01:55:59.244Z,9.50
2023-02-13T02:01:02.999Z,10.50
2023-02-13T02:06:11.033Z,7.25
2023-02-13T02:11:24.072Z,6.25
2023-02-13T02:16:27.145Z,7.50
2023-02-13T02:21:50.215Z,5.00
2023-02-13T02:26:57.429Z,4.00
2023-02-13T02:32:36.628Z,5.25
2023-02-13T02:38:04.603Z,4.00
2023-02-13T02:43:24.491Z,6.00
2023-02-13T02:48:59.889Z,5.00
2023-02-13T02:54:46.556Z,5.25
2023-02-13T03:00:08.271Z,5.00
2023-02-13T03:05:40.148Z,6.25
2023-02-13T03:11:20.967Z,5.00
2023-02-13T03:16:44.288Z,6.50
2023-02-13T03:22:20.542Z,5.00
2023-02-13T03:28:17.519Z,4.75
2023-02-13T03:33:43.141Z,2.00
2023-02-13T03:38:56.221Z,3.50
2023-02-13T03:44:13.985Z,1.75
2023-02-13T03:49:55.412Z,0.25
2023-02-13T03:55:20.260Z,1.00
2023-02-13T04:00:22.520Z,0.75
2023-02-13T04:05:29.376Z,1.00
2023-02-13T04:10:36.587Z,1.00
2023-02-13T04:15:47.204Z,1.25
2023-02-13T04:20:49.384Z,1.00
2023-02-13T04:25:54.019Z,0.75
2023-02-13T04:30:57.642Z,0.25
2023-02-13T04:35:59.578Z,1.75
2023-02-13T04:41:01.311Z,1.00
2023-02-13T04:46:03.549Z,1.25
2023-02-13T04:51:05.567Z,4.00
2023-02-13T04:56:07.869Z,2.00
2023-02-13T05:01:14.964Z,2.00
2023-02-13T05:06:16.898Z,2.00
2023-02-13T05:11:18.664Z,1.00
2023-02-13T05:16:20.442Z,1.00
2023-02-13T05:21:40.576Z,5.25
2023-02-13T05:26:42.339Z,5.00
2023-02-13T05:31:45.654Z,0.00
2023-02-13T05:36:47.915Z,1.00
2023-02-13T05:41:49.752Z,0.75
2023-02-13T05:46:53.167Z,0.00
2023-02-13T05:51:54.918Z,0.00
2023-02-13T05:56:56.715Z,1.00
2023-02-13T06:01:58.498Z,1.50
2023-02-13T06:07:00.236Z,1.00
2023-02-13T06:12:01.954Z,0.00
2023-02-13T06:17:03.703Z,0.00
2023-02-13T06:22:05.448Z,0.00
2023-02-13T06:27:07.133Z,0.00
2023-02-13T06:32:08.971Z,0.00
2023-02-13T06:37:10.760Z,1.00
2023-02-13T06:42:12.503Z,0.00
2023-02-13T06:47:14.291Z,0.00
2023-02-13T06:52:16.105Z,1.00
2023-02-13T06:57:18.055Z,0.75
2023-02-13T07:02:19.743Z,0.00
2023-02-13T07:07:21.648Z,0.00
2023-02-13T07:12:23.316Z,0.00
2023-02-13T07:17:26.246Z,0.00
2023-02-13T07:22:28.155Z,0.00
2023-02-13T07:27:29.901Z,0.00
2023-02-13T07:32:31.776Z,0.00
2023-02-13T07:37:33.556Z,0.00
2023-02-13T07:42:35.443Z,0.00
2023-02-13T07:47:37.216Z,0.00
2023-02-13T07:52:39.014Z,0.00
2023-02-13T07:57:40.754Z,0.00
2023-02-13T08:02:43.236Z,0.00
2023-02-13T08:07:44.993Z,0.00
2023-02-13T08:12:47.186Z,2.00
2023-02-13T08:17:48.916Z,1.00
2023-02-13T08:22:50.826Z,1.00
2023-02-13T08:27:52.522Z,1.00
2023-02-13T08:32:54.727Z,0.00
2023-02-13T08:37:57.038Z,1.00
2023-02-13T08:43:03.853Z,1.25
2023-02-13T08:48:05.680Z,1.00
2023-02-13T08:53:07.751Z,3.00
2023-02-13T08:58:09.582Z,2.00
2023-02-13T09:03:11.569Z,2.75
2023-02-13T09:08:13.866Z,5.50
2023-02-13T09:13:15.684Z,6.00
2023-02-13T09:18:17.523Z,5.00
2023-02-13T09:23:19.295Z,9.00
2023-02-13T09:28:21.247Z,9.50
2023-02-13T09:33:23.624Z,8.00
2023-02-13T09:38:25.442Z,10.00
2023-02-13T09:43:50.783Z,13.50
2023-02-13T09:48:56.766Z,13.50
2023-02-13T09:54:07.536Z,8.00
2023-02-13T09:59:33.580Z,12.25
2023-02-13T10:04:52.557Z,16.25
2023-02-13T10:10:28.404Z,16.50
2023-02-13T10:15:46.315Z,17.00
2023-02-13T10:21:02.305Z,17.00
2023-02-13T10:26:11.869Z,9.50
2023-02-13T10:31:22.666Z,15.50
2023-02-13T10:36:46.327Z,18.00
2023-02-13T10:41:57.945Z,14.00
2023-02-13T10:47:06.018Z,14.00
2023-02-13T10:52:36.178Z,15.25
2023-02-13T10:58:06.516Z,12.50
2023-02-13T11:03:20.684Z,12.50
2023-02-13T11:08:43.561Z,14.25
2023-02-13T11:13:45.255Z,13.25
2023-02-13T11:18:50.589Z,16.50
2023-02-13T11:23:54.880Z,20.25
2023-02-13T11:29:01.030Z,19.75
2023-02-13T11:34:25.443Z,20.75
2023-02-13T11:39:27.413Z,20.50
2023-02-13T11:44:32.362Z,16.00
2023-02-13T11:49:36.888Z,21.75
2023-02-13T11:54:42.178Z,24.50
2023-02-13T11:59:46.018Z,23.75
2023-02-13T12:04:53.470Z,23.00
2023-02-13T12:10:17.615Z,24.25
2023-02-13T12:15:25.155Z,23.50
2023-02-13T12:20:32.724Z,24.75
2023-02-13T12:25:59.441Z,24.00
2023-02-13T12:31:20.494Z,27.00
2023-02-13T12:36:45.458Z,27.75
2023-02-13T12:42:18.019Z,24.75
2023-02-13T12:47:38.764Z,26.75
2023-02-13T12:52:52.935Z,27.75
2023-02-13T12:58:17.826Z,24.75
2023-02-13T13:03:56.992Z,26.00
2023-02-13T13:09:25.840Z,24.50
2023-02-13T13:15:06.021Z,24.25
2023-02-13T13:20:34.460Z,24.75
2023-02-13T13:25:47.750Z,24.00
2023-02-13T13:30:50.183Z,25.00
2023-02-13T13:35:54.814Z,22.50
2023-02-13T13:41:06.018Z,22.00
2023-02-13T13:46:31.259Z,24.50
2023-02-13T13:51:33.223Z,24.25
2023-02-13T13:56:52.987Z,24.75
2023-02-13T14:02:23.873Z,25.00
2023-02-13T14:07:25.779Z,27.00
2023-02-13T14:12:30.222Z,26.25
2023-02-13T14:17:46.988Z,26.00
2023-02-13T14:22:49.128Z,25.75
2023-02-13T14:28:03.584Z,26.75
2023-02-13T14:33:08.463Z,27.00
2023-02-13T14:38:23.730Z,25.50
2023-02-13T14:43:31.627Z,27.25
2023-02-13T14:48:43.330Z,28.00
2023-02-13T14:53:54.512Z,26.75
2023-02-13T14:59:17.784Z,29.75
2023-02-13T15:04:32.045Z,26.25
2023-02-13T15:09:44.970Z,26.75
2023-02-13T15:14:46.701Z,25.50
2023-02-13T15:19:54.335Z,25.75
2023-02-13T15:24:56.868Z,25.00
2023-02-13T15:30:04.269Z,25.50
2023-02-13T15:35:28.229Z,28.50
2023-02-13T15:40:36.327Z,29.00
2023-02-13T15:45:43.924Z,30.00
2023-02-13T15:50:47.534Z,28.00
2023-02-13T15:56:04.753Z,29.50
2023-02-13T16:01:09.348Z,29.00
2023-02-13T16:06:19.689Z,29.25
2023-02-13T16:11:32.670Z,24.25
2023-02-13T16:16:54.633Z,30.00
2023-02-13T16:22:00.112Z,30.00
2023-02-13T16:27:02.177Z,29.75
2023-02-13T16:32:13.274Z,31.25
2023-02-13T16:37:35.557Z,31.50
2023-02-13T16:42:37.339Z,31.00
2023-02-13T16:47:39.200Z,29.25
2023-02-13T16:52:41.141Z,29.25
2023-02-13T16:57:44.381Z,28.50
2023-02-13T17:02:47.907Z,26.50
2023-02-13T17:07:52.993Z,26.25
2023-02-13T17:13:19.106Z,27.25
2023-02-13T17:18:21.581Z,28.00
2023-02-13T17:23:24.858Z,29.25
2023-02-13T17:28:29.188Z,28.50
2023-02-13T17:33:34.263Z,29.75
2023-02-13T17:38:35.997Z,27.25
2023-02-13T17:43:37.867Z,24.00
2023-02-13T17:48:39.758Z,23.00
2023-02-13T17:53:41.848Z,16.00
2023-02-13T17:58:43.703Z,17.50
2023-02-13T18:03:45.474Z,13.00
2023-02-13T18:08:47.190Z,14.50
2023-02-13T18:13:49.090Z,17.50
2023-02-13T18:18:51.830Z,25.50
2023-02-13T18:23:53.805Z,25.50
2023-02-13T18:28:55.603Z,20.75
2023-02-13T18:33:57.940Z,25.00
2023-02-13T18:38:59.798Z,25.25
2023-02-13T18:44:01.598Z,16.00
2023-02-13T18:49:03.917Z,18.00
2023-02-13T18:54:06.578Z,18.00
2023-02-13T18:59:08.361Z,13.00
2023-02-13T19:04:11.448Z,18.50
2023-02-13T19:09:13.363Z,15.25
2023-02-13T19:14:15.644Z,19.25
2023-02-13T19:19:17.371Z,12.25
2023-02-13T19:24:19.118Z,13.75
2023-02-13T19:29:21.110Z,13.50
2023-02-13T19:34:22.888Z,14.25
2023-02-13T19:39:24.659Z,12.00
2023-02-13T19:44:26.600Z,10.00
2023-02-13T19:49:28.428Z,8.00
2023-02-13T19:54:30.408Z,9.75
2023-02-13T19:59:32.689Z,8.50
2023-02-13T20:04:36.860Z,9.75
2023-02-13T20:09:39.849Z,8.25
2023-02-13T20:14:41.676Z,6.50
2023-02-13T20:19:43.516Z,8.25
2023-02-13T20:24:47.221Z,7.25
2023-02-13T20:29:48.994Z,5.00
2023-02-13T20:34:59.653Z,7.75
2023-02-13T20:40:01.939Z,7.75
2023-02-13T20:45:04.655Z,6.50
2023-02-13T20:50:06.970Z,7.00
2023-02-13T20:55:08.819Z,9.00
2023-02-13T21:00:13.152Z,10.00
2023-02-13T21:05:14.922Z,11.00
2023-02-13T21:10:16.925Z,19.25
2023-02-13T21:15:18.866Z,14.75
2023-02-13T21:20:20.970Z,14.00
2023-02-13T21:25:22.975Z,10.75
2023-02-13T21:30:24.750Z,4.00
2023-02-13T21:35:26.514Z,6.25
2023-02-13T21:40:28.206Z,4.50
2023-02-13T21:45:29.896Z,16.00
2023-02-13T21:50:31.647Z,14.50
2023-02-13T21:55:33.866Z,17.00
2023-02-13T22:00:35.558Z,16.50
2023-02-13T22:05:37.227Z,14.75
2023-02-13T22:10:39.503Z,12.25
2023-02-13T22:15:41.238Z,13.50
2023-02-13T22:20:42.927Z,7.25
2023-02-13T22:25:48.651Z,8.00
2023-02-13T22:30:50.488Z,11.00
2023-02-13T22:35:52.408Z,10.00
2023-02-13T22:40:54.150Z,13.00
2023-02-13T22:45:55.933Z,12.75
2023-02-13T22:51:01.822Z,10.50
2023-02-13T22:56:05.677Z,9.25
2023-02-13T23:01:13.346Z,10.25
2023-02-13T23:06:15.471Z,10.00
2023-02-13T23:11:36.099Z,10.25
2023-02-13T23:17:00.398Z,9.50
2023-02-13T23:22:02.181Z,6.75
2023-02-13T23:27:04.004Z,3.00
2023-02-13T23:32:05.947Z,3.00
2023-02-13T23:37:07.687Z,1.00
2023-02-13T23:42:09.407Z,0.75
2023-02-13T23:47:11.352Z,2.00
2023-02-13T23:52:13.107Z,1.00
2023-02-13T23:57:14.973Z,0.75
